AIRPORT ID: KIYK

DATE: 2024-06-16 ZULU TIME: 13.55 LOCAL TIME: 6.55


METAR KIYK 161355Z AUTO 00000KT 10SM 22/00 A2973

ALTIMETER: A2973 Q1007

DENSITY ALT: 3900 Ft

WIND DIRECT: 20

WIND SPEED: 0 Gust

WIND CONDITIONS:

VISIBILTY: 10SM 9999M

TEMPERATURE: 72 F 22 C

DEW POINT: 32 F 0 C

HUMID: 23%

LCL: Above 5,000 feet

RADIO CHECK: 1

ADVISARIES: 1

GREETINGS: 0

CONVERSATIONS: 4